x

West Superior - 30nm Ne Of Outer Island, Wi (45006) Wave Buoy

12:50am - Sun 26th Apr 2015 All times are CDT. -5 hours from GMT.

  • Sig Wave height 1.0ft
  • Peak Period 4s
  • Average Period 3s
  • Wind
    4mph
  • Sea Temp 34°f
  • Air Temp 35°f
  • Sea Pressure 1019.9mb
  • West Superior - 30nm Ne Of Outer Island, Wi
  • West Superior - 30nm Ne Of Outer Island, Wi

More Historic Weather Station data

Upgrade to MSW Pro to gain access to the past 30 days of data for over 8000 Wavebouys and Weather Stations around the globe.

Join Pro

Comparision Forecast

View Surf forecast
   
Sun 04/26 12:50am 1ft 4s 3s 4
mph
1019.9mb 34f 35f
Sat 04/25 11:50pm 1ft 4s 3s 7 9 mph 1019.6mb 34f 35f
10:50pm 1.3ft 4s 4s 7
mph
1019.2mb 34f 35f
9:50pm 1.3ft 4s 4s 7 9 mph 1019.1mb 34f 35f
8:50pm 1.6ft 4s 4s 9
mph
1018.7mb 34f 35f
7:50pm 2ft 4s 4s 9
mph
1018.1mb 35f 36f
6:50pm 2ft 5s 4s 9 11 mph 1018mb 35f 36f
5:50pm 2.5ft 5s 4s 13 16 mph 1017.8mb 35f 36f
4:50pm 2.5ft 4s 4s 13 16 mph 1017.8mb 35f 35f
3:50pm 2.5ft 4s 4s 13 18 mph 1017.8mb 35f 35f
2:50pm 2.5ft 4s 4s 16 20 mph 1017.9mb 35f 35f
1:50pm 3ft 5s 4s 16 20 mph 1018mb 35f 34f
12:50pm 3.5ft 4s 4s 18 22 mph 1018.2mb 35f 34f
11:50am 3ft 4s 4s 20 25 mph 1018mb 34f 34f
10:50am 3ft 5s 4s 20 22 mph 1018.1mb 34f 34f
9:50am 2.5ft 4s 4s 18 20 mph 1018mb 34f 34f
8:50am 3ft 4s 4s 18 20 mph 1018mb 34f 34f
7:50am 2.5ft 4s 4s 16 18 mph 1018.2mb 34f 34f
6:50am 2.5ft 4s 4s 18 20 mph 1018mb 34f 34f
5:50am 2.5ft 4s 4s 18 20 mph 1017.2mb 34f 34f
4:50am 2.5ft 4s 4s 16 18 mph 1017.1mb 34f 34f
3:50am 2.5ft 4s 4s 18 20 mph 1016.8mb 34f 34f
2:50am 2.5ft 4s 3s 20 22 mph 1016.8mb 34f 34f
1:50am 2ft 5s 4s 18 20 mph 1016.8mb 34f 35f
12:50am 2.5ft 5s 4s 16 18 mph 1017.2mb 34f 35f
Fri 04/24 11:50pm 2.5ft 5s 4s 16 18 mph 1017.5mb 34f 35f
10:50pm 2.5ft 5s 4s 16 18 mph 1017.8mb 34f 35f
9:50pm 3ft 5s 4s 13 18 mph 1018mb 34f 35f
8:50pm 3.5ft 5s 4s 16 18 mph 1017.6mb 34f 35f
7:50pm 3.5ft 5s 4s 20 22 mph 1017.1mb 34f 35f
6:50pm 3.5ft 5s 4s 20 25 mph 1016.9mb 34f 35f
5:50pm 3.5ft 4s 4s 20 25 mph 1016.7mb 34f 35f
4:50pm 2.5ft 4s 3s 20 25 mph 1016.9mb 35f 35f
3:50pm 1.6ft 3s 3s 20 25 mph 1017.3mb 35f 34f
2:50pm 1.3ft 3s 3s 18 20 mph 1018.1mb 35f 35f
1:50pm 1ft 3s 3s 16 18 mph 1018.5mb 35f 35f
12:50pm 0.7ft  -  3s 11 13 mph 1019.1mb 35f 35f
11:50am 0.7ft  -  3s 11 13 mph 1019.6mb 34f 35f
10:50am 0.7ft  -  3s 9 11 mph 1019.7mb 34f 34f
9:50am 0.7ft  -  3s 11 13 mph 1019.8mb 34f 34f
8:50am 0.3ft  -  3s 9
mph
1020mb 34f 34f
7:50am 0.3ft  -  2s 9 11 mph 1019.7mb 34f 34f
6:50am 0.3ft  -  3s 9
mph
1019.9mb 34f 34f
5:50am 0.3ft  -  3s 9
mph
1019.5mb 34f 34f
4:50am 0.3ft  -  3s 9 11 mph 1018.9mb 34f 34f
3:50am 0.3ft  -  3s 9 11 mph 1019.3mb 34f 34f